• Join FlightAware (Why Join?)
  • Login
  • US Flag 
02:31AM EDT


 

Airport Tracker/Info


-or-


 

Live Flight TrackerFlight Track Log ✈ AAL1644 ✈ 11-May-2013 ✈ MMPR / PVR - KDFW

Flight Track Log - Related Links

Times and Time Zones

All times are in EDT time to prevent confusion due to time zone crossing. See the AAL1644 flight status page for this flight to view local times or setup timezone preferences in your user account.

Time Position Orientation Groundspeed Altitude Reporting Facility
EDT Latitude Longitude Course Direction KTS MPH feet Rate Location/Type
05:58PM 20.9856 -105.0670 27° Northeast  Level FlightAware Approximate
05:59PM 21.0934 -105.0074 27° Northeast  Level FlightAware Approximate
06:00PM 21.2014 -104.9482 26° Northeast  Level FlightAware Approximate
06:01PM 21.3100 -104.8903 26° Northeast  Level FlightAware Approximate
06:02PM 21.4186 -104.8324 25° Northeast  Level FlightAware Approximate
06:03PM 21.5270 -104.7739 27° Northeast  Level FlightAware Approximate
06:04PM 21.6339 -104.7122 30° Northeast  Level FlightAware Approximate
06:05PM 21.7387 -104.6464 32° Northeast  Level FlightAware Approximate
06:06PM 21.8441 -104.5820 28° Northeast  Level FlightAware Approximate
06:07PM 21.9507 -104.5196 29° Northeast  Level FlightAware Approximate
06:08PM 22.0595 -104.4619 25° Northeast  Level FlightAware Approximate
06:09PM 22.1652 -104.3980 30° Northeast  Level FlightAware Approximate
06:10PM 22.2698 -104.3317 25° Northeast  Level FlightAware Approximate
06:11PM 22.3799 -104.2767 25° Northeast  Level FlightAware Approximate
06:12PM 22.4877 -104.2168 29° Northeast  Level FlightAware Approximate
06:13PM 22.5934 -104.1523 29° Northeast  Level FlightAware Approximate
06:14PM 22.6990 -104.0877 29° Northeast  Level FlightAware Approximate
06:15PM 22.8063 -104.0264 29° Northeast  Level FlightAware Approximate
06:16PM 22.9125 -103.9629 29° Northeast  Level FlightAware Approximate
06:17PM 23.0188 -103.8994 29° Northeast  Level FlightAware Approximate
06:18PM 23.1250 -103.8357 29° Northeast  Level FlightAware Approximate
06:19PM 23.2312 -103.7720 29° Northeast  Level FlightAware Approximate
06:20PM 23.3374 -103.7081 29° Northeast  Level FlightAware Approximate
06:21PM 23.4435 -103.6441 29° Northeast  Level FlightAware Approximate
06:22PM 23.5496 -103.5799 29° Northeast  Level FlightAware Approximate
06:23PM 23.6554 -103.5153 29° Northeast  Level FlightAware Approximate
06:24PM 23.7612 -103.4505 29° Northeast  Level FlightAware Approximate
06:25PM 23.8670 -103.3856 29° Northeast  Level FlightAware Approximate
06:26PM 23.9727 -103.3206 29° Northeast  Level FlightAware Approximate
06:27PM 24.0793 -103.2571 28° Northeast  Level FlightAware Approximate
06:28PM 24.1862 -103.1945 29° Northeast  Level FlightAware Approximate
06:29PM 24.2921 -103.1296 29° Northeast  Level FlightAware Approximate
06:30PM 24.3980 -103.0646 29° Northeast  Level FlightAware Approximate
06:31PM 24.5038 -102.9995 29° Northeast  Level FlightAware Approximate
06:32PM 24.6096 -102.9343 29° Northeast  Level FlightAware Approximate
06:33PM 24.7154 -102.8690 29° Northeast  Level FlightAware Approximate
06:34PM 24.8212 -102.8036 29° Northeast  Level FlightAware Approximate
06:35PM 24.9271 -102.7384 29° Northeast  Level FlightAware Approximate
06:36PM 25.0329 -102.6731 29° Northeast  Level FlightAware Approximate
06:37PM 25.1388 -102.6077 29° Northeast  Level FlightAware Approximate
06:38PM 25.2446 -102.5421 29° Northeast  Level FlightAware Approximate
06:39PM 25.3504 -102.4764 29° Northeast  Level FlightAware Approximate
06:40PM 25.4561 -102.4107 29° Northeast  Level FlightAware Approximate
06:41PM 25.5618 -102.3448 29° Northeast  Level FlightAware Approximate
06:42PM 25.6675 -102.2788 29° Northeast  Level FlightAware Approximate
06:43PM 25.7732 -102.2126 29° Northeast  Level FlightAware Approximate
06:44PM 25.8788 -102.1464 29° Northeast  Level FlightAware Approximate
06:45PM 25.9844 -102.0800 29° Northeast  Level FlightAware Approximate
06:46PM 26.0900 -102.0135 29° Northeast  Level FlightAware Approximate
06:47PM 26.1955 -101.9470 30° Northeast  Level FlightAware Approximate
06:48PM 26.3010 -101.8802 30° Northeast  Level FlightAware Approximate
06:49PM 26.4065 -101.8134 30° Northeast  Level FlightAware Approximate
06:50PM 26.5120 -101.7464 30° Northeast  Level FlightAware Approximate
06:51PM 26.6174 -101.6793 30° Northeast  Level FlightAware Approximate
06:52PM 26.7227 -101.6121 30° Northeast  Level FlightAware Approximate
06:53PM 26.8281 -101.5448 30° Northeast  Level FlightAware Approximate
06:54PM 26.9334 -101.4773 30° Northeast  Level FlightAware Approximate
06:55PM 27.0417 -101.4161 26° Northeast  Level FlightAware Approximate
06:56PM 27.1506 -101.3560 26° Northeast  Level FlightAware Approximate
06:57PM 27.2594 -101.2958 26° Northeast  Level FlightAware Approximate
06:58PM 27.3682 -101.2355 26° Northeast  Level FlightAware Approximate
06:58PM 27.9728 -100.8922 26° Northeast 545 627 34,900  Level Houston Center
06:59PM 27.4770 -101.1750 26° Northeast  Level FlightAware Approximate
06:59PM 28.0764 -100.7678 47° Northeast 544 626 34,900  Level Houston Center
07:00PM 27.5858 -101.1144 26° Northeast  Level FlightAware Approximate
07:00PM 28.1744 -100.6350 50° Northeast 548 631 34,900  Level Houston Center
07:01PM 27.6945 -101.0537 26° Northeast  Level FlightAware Approximate
07:01PM 28.2739 -100.5036 49° Northeast 548 631 34,900  Level Houston Center
07:02PM 27.8032 -100.9929 26° Northeast  Level FlightAware Approximate
07:02PM 28.3692 -100.3689 51° Northeast 546 628 34,900  Level Houston Center
07:03PM 27.9119 -100.9320 26° Northeast  Level FlightAware Approximate
07:03PM 28.4825 -100.2047 52° Northeast 549 632 34,900  Level Houston Center
07:04PM 28.5767 -100.0689 52° Northeast 547 629 34,900  Level Houston Center
07:05PM 28.6647 -99.9469 51° Northeast 548 631 34,900  Level Houston Center
07:06PM 28.7703 -99.7983 51° Northeast 550 633 34,900  Level Houston Center
07:07PM 28.9033 -99.6856 37° Northeast 552 635 35,000  Climbing Houston Center
07:08PM 29.0383 -99.6161 24° Northeast 539 620 35,000 -60 Level Houston Center
07:09PM 29.1733 -99.5411 26° Northeast 539 620 34,900 -60 Descending Houston Center
07:10PM 29.3081 -99.4653 26° Northeast 541 623 34,900  Level Houston Center
07:11PM 29.4394 -99.3911 26° Northeast 530 610 34,900  Level Houston Center
07:12PM 29.5858 -99.3086 26° Northeast 539 620 35,000  Climbing Houston Center
07:13PM 29.7269 -99.2272 27° Northeast 529 609 35,000  Level Houston Center
07:14PM 29.8414 -99.1619 26° Northeast 536 617 35,000  Level Houston Center
07:15PM 29.9972 -99.0722 26° Northeast 540 621 35,000  Level Houston Center
07:16PM 30.1322 -98.9953 26° Northeast 538 619 35,000 -420 Level Houston Center
07:17PM 30.2775 -98.9117 26° Northeast 540 621 34,200 -900 Descending Houston Center
07:18PM 30.4075 -98.8397 26° Northeast 530 610 33,200 -1,020 Descending Houston Center
07:19PM 30.5356 -98.7644 27° Northeast 514 592 32,200 -1,020 Descending Houston Center
07:20PM 30.6678 -98.6886 26° Northeast 521 600 31,200 -600 Descending Houston Center
07:21PM 30.7969 -98.6142 26° Northeast 513 590 31,000 -120 Descending Houston Center
07:22PM 30.9261 -98.5383 27° Northeast 512 589 31,000  Level Houston Center
07:23PM 31.0567 -98.4633 26° Northeast 514 592 31,000 -420 Level Houston Center
07:24PM 31.1719 -98.3967 26° Northeast 512 589 30,200 -960 Descending Fort Worth Center
07:25PM 31.2997 -98.3225 26° Northeast 512 589 29,200 -1,140 Descending Fort Worth Center
07:26PM 31.4256 -98.2483 27° Northeast 505 581 28,000 -1,620 Descending Fort Worth Center
07:27PM 31.5514 -98.1667 29° Northeast 505 581 26,000 -2,040 Descending Fort Worth Center
07:28PM 31.6853 -98.0847 28° Northeast 493 567 24,000 -2,160 Descending Fort Worth Center
07:29PM 31.8028 -98.0097 28° Northeast 483 556 21,700 -2,280 Descending Fort Worth Center
07:30PM 31.9117 -97.9419 28° Northeast 459 528 19,500 -2,100 Descending Fort Worth Center
07:31PM 32.0058 -97.8764 31° Northeast 437 503 17,600 -2,160 Descending Fort Worth Center
07:32PM 32.1167 -97.8058 28° Northeast 424 488 15,200 -2,160 Descending Fort Worth Center
07:33PM 32.2044 -97.7497 28° Northeast 401 461 13,300 -1,800 Descending Fort Worth Center
07:34PM 32.2986 -97.6911 28° Northeast 364 419 11,700 -1,320 Descending Fort Worth Center
07:35PM 32.3572 -97.6422 35° Northeast 304 350 10,700 -1,260 Descending Fort Worth Center
07:36PM 32.4136 -97.5733 46° Northeast 271 312 9,200 -1,500 Descending Fort Worth Center
07:37PM 32.4617 -97.5167 45° Northeast 260 299 7,800 -1,560 Descending Fort Worth Center
07:38PM 32.4953 -97.4331 64° Northeast 255 293 6,100 -1,320 Descending Fort Worth Center
07:39PM 32.5244 -97.3617 64° Northeast 255 293 5,200 -600 Descending Fort Worth Center
07:40PM 32.5578 -97.2778 65° Northeast 255 293 5,000 -120 Descending Fort Worth Center
07:41PM 32.6036 -97.2236 45° Northeast 243 280 5,000 -300 Level Fort Worth Center
07:42PM 32.6578 -97.1617 44° Northeast 243 280 4,400 -600 Descending Fort Worth Center
07:43PM 32.7000 -97.1167 42° Northeast 185 213 4,000 -480 Descending Dallas / Fort Worth TRACON
07:44PM 32.7333 -97.0833 40° Northeast 176 203 3,500 -720 Descending Dallas / Fort Worth TRACON
07:45PM 32.7667 -97.0500 40° Northeast 152 175 2,600 -900 Descending Dallas / Fort Worth TRACON